Flight Track Log - Related Links

Times and Time Zones

All times are in EDT time to prevent confusion due to time zone crossing. See the CSN6385 flight status page for this flight to view local times or setup timezone preferences in your user account.

Time Position Orientation Groundspeed Altitude Reporting Facility
EDT Latitude Longitude Course Direction KTS MPH feet Rate Location/Type
Sat 08:19:00 PM 25.3328 110.1013 26° Northeast  Level Estimated
Sat 08:20:00 PM 25.4475 110.1635 26° Northeast  Level Estimated
Sat 08:21:00 PM 25.5622 110.2258 26° Northeast  Level Estimated
Sat 08:22:00 PM 25.6769 110.2882 26° Northeast  Level Estimated
Sat 08:23:00 PM 25.7915 110.3508 26° Northeast  Level Estimated
Sat 08:24:00 PM 25.9061 110.4135 26° Northeast  Level Estimated
Sat 08:25:00 PM 26.0207 110.4763 26° Northeast  Level Estimated
Sat 08:26:00 PM 26.1352 110.5392 26° Northeast  Level Estimated
Sat 08:27:00 PM 26.2498 110.6023 26° Northeast  Level Estimated
Sat 08:28:00 PM 26.3642 110.6654 26° Northeast  Level Estimated
Sat 08:29:00 PM 26.4787 110.7287 26° Northeast  Level Estimated
Sat 08:30:00 PM 26.5931 110.7922 26° Northeast  Level Estimated
Sat 08:31:00 PM 26.7076 110.8557 26° Northeast  Level Estimated
Sat 08:32:00 PM 26.8219 110.9194 26° Northeast  Level Estimated
Sat 08:33:00 PM 26.9363 110.9832 26° Northeast  Level Estimated
Sat 08:34:00 PM 27.0506 111.0471 26° Northeast  Level Estimated
Sat 08:35:00 PM 27.1649 111.1112 27° Northeast  Level Estimated
Sat 08:36:00 PM 27.2792 111.1754 27° Northeast  Level Estimated
Sat 08:37:00 PM 27.3934 111.2398 27° Northeast  Level Estimated
Sat 08:38:00 PM 27.5076 111.3042 27° Northeast  Level Estimated
Sat 08:39:00 PM 27.6218 111.3688 27° Northeast  Level Estimated
Sat 08:40:00 PM 27.7359 111.4336 27° Northeast  Level Estimated
Sat 08:41:00 PM 27.8500 111.4984 27° Northeast  Level Estimated
Sat 08:42:00 PM 27.9641 111.5634 27° Northeast  Level Estimated
Sat 08:43:00 PM 28.0782 111.6286 27° Northeast  Level Estimated
Sat 08:44:00 PM 28.1922 111.6939 27° Northeast  Level Estimated
Sat 08:45:00 PM 28.3062 111.7593 27° Northeast  Level Estimated
Sat 08:46:00 PM 28.4202 111.8249 27° Northeast  Level Estimated
Sat 08:47:00 PM 28.5341 111.8906 27° Northeast  Level Estimated
Sat 08:48:00 PM 28.6480 111.9564 27° Northeast  Level Estimated
Sat 08:49:00 PM 28.7619 112.0224 27° Northeast  Level Estimated
Sat 08:50:00 PM 28.8757 112.0885 27° Northeast  Level Estimated
Sat 08:51:00 PM 28.9895 112.1548 27° Northeast  Level Estimated
Sat 08:52:00 PM 29.1033 112.2212 27° Northeast  Level Estimated
Sat 08:53:00 PM 29.2170 112.2878 27° Northeast  Level Estimated
Sat 08:54:00 PM 29.3307 112.3545 27° Northeast  Level Estimated
Sat 08:55:00 PM 29.4444 112.4214 27° Northeast  Level Estimated
Sat 08:56:00 PM 29.5580 112.4884 27° Northeast  Level Estimated
Sat 08:57:00 PM 29.6716 112.5556 27° Northeast  Level Estimated
Sat 08:58:00 PM 29.7852 112.6229 27° Northeast  Level Estimated
Sat 08:59:00 PM 29.8987 112.6904 27° Northeast  Level Estimated
Sat 09:00:00 PM 30.0122 112.7580 27° Northeast  Level Estimated
Sat 09:01:00 PM 30.1257 112.8258 27° Northeast  Level Estimated
Sat 09:02:00 PM 30.2391 112.8937 27° Northeast  Level Estimated
Sat 09:03:00 PM 30.3525 112.9618 27° Northeast  Level Estimated
Sat 09:04:00 PM 30.4659 113.0301 27° Northeast  Level Estimated
Sat 09:05:00 PM 30.5792 113.0985 27° Northeast  Level Estimated
Sat 09:06:00 PM 30.6925 113.1671 27° Northeast  Level Estimated
Sat 09:07:00 PM 30.8057 113.2358 28° Northeast  Level Estimated
Sat 09:08:00 PM 30.9189 113.3047 28° Northeast  Level Estimated
Sat 09:09:00 PM 31.0321 113.3738 28° Northeast  Level Estimated
Sat 09:10:00 PM 31.1453 113.4430 28° Northeast  Level Estimated
Sat 09:11:00 PM 31.2584 113.5124 28° Northeast  Level Estimated
Sat 09:12:00 PM 31.3715 113.5819 28° Northeast  Level Estimated
Sat 09:13:00 PM 31.4845 113.6517 28° Northeast  Level Estimated
Sat 09:14:00 PM 31.5975 113.7216 28° Northeast  Level Estimated
Sat 09:15:00 PM 31.7104 113.7916 28° Northeast  Level Estimated
Sat 09:16:00 PM 31.8233 113.8618 28° Northeast  Level Estimated
Sat 09:17:00 PM 31.9362 113.9323 28° Northeast  Level Estimated
Sat 09:18:00 PM 32.0491 114.0028 28° Northeast  Level Estimated
Sat 09:19:00 PM 32.1619 114.0736 28° Northeast  Level Estimated
Sat 09:20:00 PM 32.2746 114.1445 28° Northeast  Level Estimated
Sat 09:21:00 PM 32.3873 114.2156 28° Northeast  Level Estimated
Sat 09:22:00 PM 32.5000 114.2869 28° Northeast  Level Estimated
Sat 09:23:00 PM 32.6127 114.3584 28° Northeast  Level Estimated
Sat 09:24:00 PM 32.7253 114.4300 28° Northeast  Level Estimated
Sat 09:25:00 PM 32.8378 114.5018 28° Northeast  Level Estimated
Sat 09:26:00 PM 32.9503 114.5738 28° Northeast  Level Estimated
Sat 09:27:00 PM 33.0628 114.6460 28° Northeast  Level Estimated
Sat 09:28:00 PM 33.1753 114.7184 28° Northeast  Level Estimated
Sat 09:29:00 PM 33.2876 114.7910 28° Northeast  Level Estimated
Sat 09:30:00 PM 33.4000 114.8637 28° Northeast  Level Estimated
Sat 09:31:00 PM 33.5123 114.9366 28° Northeast  Level Estimated
Sat 09:32:00 PM 33.6246 115.0098 28° Northeast  Level Estimated
Sat 09:33:00 PM 33.7368 115.0831 29° Northeast  Level Estimated
Sat 09:34:00 PM 33.8490 115.1566 29° Northeast  Level Estimated
Sat 09:35:00 PM 33.9611 115.2303 29° Northeast  Level Estimated
Sat 09:36:00 PM 34.0732 115.3042 29° Northeast  Level Estimated
Sat 09:37:00 PM 34.1852 115.3783 29° Northeast  Level Estimated
Sat 09:38:00 PM 34.2972 115.4526 29° Northeast  Level Estimated
Sat 09:39:00 PM 34.4092 115.5270 29° Northeast  Level Estimated
Sat 09:40:00 PM 34.5211 115.6017 29° Northeast  Level Estimated
Sat 09:41:00 PM 34.6330 115.6766 29° Northeast  Level Estimated
Sat 09:42:00 PM 34.7448 115.7517 29° Northeast  Level Estimated
Sat 09:43:00 PM 34.8566 115.8270 29° Northeast  Level Estimated
Sat 09:44:00 PM 34.9683 115.9025 29° Northeast  Level Estimated
Sat 09:45:00 PM 35.0800 115.9782 29° Northeast  Level Estimated
Sat 09:46:00 PM 35.1916 116.0541 29° Northeast  Level Estimated
Sat 09:47:00 PM 35.3032 116.1302 29° Northeast  Level Estimated
Sat 09:48:00 PM 35.4147 116.2066 29° Northeast  Level Estimated
Sat 09:49:00 PM 35.5262 116.2831 29° Northeast  Level Estimated
Sat 09:50:00 PM 35.6377 116.3598 29° Northeast  Level Estimated
Sat 09:51:00 PM 35.7491 116.4368 29° Northeast  Level Estimated
Sat 09:52:00 PM 35.8604 116.5140 29° Northeast  Level Estimated
Sat 09:53:00 PM 35.9717 116.5914 29° Northeast  Level Estimated
Sat 09:54:00 PM 36.0829 116.6690 29° Northeast  Level Estimated
Sat 09:55:00 PM 36.1941 116.7469 29° Northeast  Level Estimated
Sat 09:56:00 PM 36.3052 116.8249 30° Northeast  Level Estimated
Sat 09:57:00 PM 36.4163 116.9032 30° Northeast  Level Estimated
Sat 09:58:00 PM 36.5274 116.9817 30° Northeast  Level Estimated
Sat 09:59:00 PM 36.6384 117.0604 30° Northeast  Level Estimated
Sat 10:00:00 PM 36.7493 117.1394 30° Northeast  Level Estimated
Sat 10:01:00 PM 36.8566 117.2160 30° Northeast  Level Estimated
Sat 10:02:00 PM 36.8566 117.2160 73° East  Level Estimated
Sat 10:03:00 PM 36.8566 117.2160 73° East  Level Estimated
Sat 10:04:00 PM 36.8566 117.2160 73° East  Level Estimated
Sat 10:05:00 PM 36.8566 117.2160 73° East  Level Estimated
Sat 10:06:00 PM 36.8566 117.2160 73° East  Level Estimated
Sat 10:07:00 PM 36.8566 117.2160 73° East  Level Estimated
Sat 10:08:00 PM 36.8566 117.2160 73° East  Level Estimated
Sat 10:09:00 PM 36.8566 117.2160 73° East  Level Estimated
Sat 10:10:00 PM 36.8566 117.2160 73° East  Level Estimated
Sat 10:11:00 PM 36.8566 117.2160 73° East  Level Estimated
Sat 10:12:00 PM 36.8566 117.2160 73° East  Level Estimated
Sat 10:13:00 PM 36.8566 117.2160 73° East  Level Estimated
Sat 10:14:00 PM 36.8566 117.2160 73° East  Level Estimated
Sat 10:15:00 PM 36.8566 117.2160 73° East  Level Estimated

Login

Don't have an account? Register now (free) for customized features, flight alerts, and more!